Aviation Digital Data Service (ADDS)

Output produced by METARs form (1204 UTC 19 January 2019)
found at http://www.aviationweather.gov/metar/data/
 
Forecast for: VEGT (GAUHATI (IN-AFB), IN)
Text: TAF VEGT 191100Z 1912/1921 00000KT 3000 BR FEW020
Forecast period: 1200 to 1800 UTC 19 January 2019
Forecast type: FROM: standard forecast or significant change
Winds: calm
Visibility: 1.86 miles (2.99 km)
Ceiling: at least 12,000 feet AGL
Clouds: few clouds at 2000 feet AGL
Weather: BR  (mist)
Text: BECMG 1918/1920 2000 BR FEW018
Forecast period: 1800 to 2100 UTC 19 January 2019
Forecast type: BECOMING: Conditions expected to become as follows by 2000 UTC 19 January 2019
Winds: calm
Visibility: 1.24 miles (2.00 km)
Ceiling: at least 12,000 feet AGL
Clouds: few clouds at 1800 feet AGL
Weather: BR  (mist)